Time;durP1;ratioP1;P1;durP2;ratioP2;P2;SDS_P1;SDS_P2;PMS_P1;PMS_P2;Temp;Humidity;BMP_temperature;BMP_pressure;BME280_temperature;BME280_humidity;BME280_pressure;Samples;Min_cycle;Max_cycle;Signal;HPM_P1;HPM_P2
2022/06/04 00:00:29;;;;;;;6.32;4.00;;;;;;;11.88;65.92;99886.38;5093927;27;20041;-66
2022/06/04 00:02:54;;;;;;;6.72;4.25;;;;;;;11.86;65.90;99882.13;5097690;27;20030;-70
2022/06/04 00:05:23;;;;;;;6.55;4.93;;;;;;;11.86;65.74;99882.97;5116176;27;20099;-66
2022/06/04 00:07:50;;;;;;;9.13;4.65;;;;;;;11.83;65.43;99891.22;5082009;27;20142;-67
2022/06/04 00:15:50;;;;;;;9.40;4.00;;;;;;;11.79;66.68;99888.88;5078711;27;20184;-70
2022/06/04 00:18:16;;;;;;;11.27;5.05;;;;;;;11.75;65.84;99879.34;5084597;27;20050;-66
2022/06/04 00:20:42;;;;;;;11.35;4.60;;;;;;;11.74;66.18;99886.50;5094243;28;20469;-69
2022/06/04 00:23:08;;;;;;;8.18;4.25;;;;;;;11.71;66.41;99876.06;5095251;28;20039;-68
2022/06/04 00:25:36;;;;;;;7.85;4.03;;;;;;;11.70;66.79;99876.16;5093722;28;20051;-70
2022/06/04 00:28:03;;;;;;;5.53;4.40;;;;;;;11.67;67.24;99874.56;5095013;27;20045;-66
2022/06/04 00:30:28;;;;;;;6.97;4.22;;;;;;;11.64;66.52;99877.44;5093937;28;20042;-67
2022/06/04 00:32:53;;;;;;;5.40;4.20;;;;;;;11.63;67.08;99876.59;5094921;28;20043;-63
2022/06/04 00:35:18;;;;;;;6.22;4.28;;;;;;;11.62;66.06;99877.56;5093743;28;20058;-62
2022/06/04 00:37:42;;;;;;;8.27;4.00;;;;;;;11.59;66.97;99864.44;5094615;27;20047;-64
2022/06/04 00:40:11;;;;;;;5.03;4.00;;;;;;;11.58;66.95;99870.75;5095634;28;20566;-63
2022/06/04 00:42:36;;;;;;;9.27;4.57;;;;;;;11.55;67.63;99870.94;5094098;28;20087;-67
2022/06/04 00:45:34;;;;;;;5.13;3.80;;;;;;;11.60;66.70;99875.97;5095330;28;20042;-66
2022/06/04 00:48:01;;;;;;;7.15;5.22;;;;;;;11.53;66.99;99882.69;5060195;28;20047;-67
2022/06/04 00:50:28;;;;;;;7.38;4.60;;;;;;;11.50;67.38;99872.25;5094088;28;20047;-66
2022/06/04 00:52:55;;;;;;;5.35;3.50;;;;;;;11.47;67.99;99883.16;5059961;28;20043;-63
2022/06/04 00:55:20;;;;;;;6.45;3.70;;;;;;;11.45;67.28;99887.75;5095652;28;20049;-63
2022/06/04 00:58:02;;;;;;;6.18;4.07;;;;;;;11.42;66.81;99886.13;5093506;28;20038;-64
2022/06/04 01:00:41;;;;;;;6.03;4.00;;;;;;;11.49;67.43;99886.56;5076551;28;20043;-64
2022/06/04 01:03:18;;;;;;;5.68;4.07;;;;;;;11.44;66.79;99886.03;5095195;28;20042;-64
2022/06/04 01:06:01;;;;;;;9.48;3.53;;;;;;;11.46;67.14;99890.31;5092715;28;20058;-66
2022/06/04 01:08:48;;;;;;;9.63;4.25;;;;;;;11.50;67.14;99893.63;5086418;28;20042;-65
2022/06/04 01:15:07;;;;;;;7.47;4.20;;;;;;;11.51;66.50;99895.34;5078084;28;20100;-64
2022/06/04 01:17:50;;;;;;;12.50;4.00;;;;;;;11.51;66.38;99898.00;5081030;27;20051;-64
2022/06/04 01:20:26;;;;;;;5.63;3.72;;;;;;;11.44;66.54;99894.91;5080887;27;20047;-65
2022/06/04 01:23:19;;;;;;;8.15;3.47;;;;;;;11.51;66.57;99898.81;5100320;27;20049;-66
2022/06/04 01:25:53;;;;;;;7.90;4.25;;;;;;;11.46;66.90;99900.13;5102450;27;20075;-66
2022/06/04 01:28:18;;;;;;;5.88;3.67;;;;;;;11.46;65.89;99897.47;5081929;27;20042;-66
2022/06/04 01:30:47;;;;;;;7.35;3.55;;;;;;;11.48;66.27;99895.53;5081075;27;20043;-64
2022/06/04 01:33:38;;;;;;;6.40;4.43;;;;;;;11.52;66.04;99892.53;5097231;27;20050;-68
2022/06/04 01:36:16;;;;;;;6.65;4.55;;;;;;;11.50;65.90;99897.16;5099499;27;20365;-65
2022/06/04 01:38:51;;;;;;;7.47;3.40;;;;;;;11.52;66.42;99897.00;5093003;27;20043;-64
2022/06/04 01:41:22;;;;;;;7.28;3.92;;;;;;;11.52;65.74;99894.34;5085920;27;20512;-65
2022/06/04 01:43:57;;;;;;;7.78;4.18;;;;;;;11.58;65.72;99897.44;5079629;28;20051;-63
2022/06/04 01:46:42;;;;;;;6.88;3.72;;;;;;;11.65;66.07;99892.50;5079110;28;20089;-63
2022/06/04 01:49:26;;;;;;;4.03;3.63;;;;;;;11.69;65.55;99893.16;5105430;27;20550;-65
2022/06/04 01:51:55;;;;;;;11.48;3.45;;;;;;;11.70;65.53;99895.72;5072897;27;20058;-64
2022/06/04 01:54:24;;;;;;;6.25;3.90;;;;;;;11.75;65.28;99898.91;5100497;27;20039;-63
2022/06/04 01:56:57;;;;;;;11.15;4.72;;;;;;;11.80;64.91;99903.94;5099727;27;20038;-66
2022/06/04 01:59:35;;;;;;;8.10;3.83;;;;;;;11.89;65.32;99906.78;5101574;27;20043;-65
2022/06/04 02:02:04;;;;;;;4.93;3.92;;;;;;;11.92;65.25;99911.06;5081161;27;20520;-65
2022/06/04 02:04:34;;;;;;;11.32;3.67;;;;;;;11.97;64.72;99912.44;5097780;27;20048;-66
2022/06/04 02:07:31;;;;;;;16.45;5.18;;;;;;;12.07;64.52;99909.97;5090730;27;20046;-64
2022/06/04 02:10:18;;;;;;;5.40;3.80;;;;;;;12.14;64.42;99905.00;5089294;27;20104;-66
2022/06/04 02:12:45;;;;;;;5.88;4.05;;;;;;;12.19;64.38;99914.38;5101038;27;20046;-69
2022/06/04 02:15:15;;;;;;;5.05;3.78;;;;;;;12.26;63.85;99904.09;5107547;27;20035;-65
2022/06/04 02:17:44;;;;;;;9.25;3.55;;;;;;;12.28;63.59;99911.03;5112607;27;20046;-69
2022/06/04 02:20:11;;;;;;;5.72;4.05;;;;;;;12.32;63.72;99908.97;5091658;27;20120;-64
2022/06/04 02:22:35;;;;;;;7.63;4.43;;;;;;;12.34;63.16;99912.41;5118125;27;20083;-65
2022/06/04 02:25:01;;;;;;;7.30;3.58;;;;;;;12.41;63.12;99908.31;5098843;27;20042;-64
2022/06/04 02:27:28;;;;;;;6.30;4.07;;;;;;;12.48;62.55;99908.69;5098753;27;20070;-63
2022/06/04 02:29:53;;;;;;;8.05;3.97;;;;;;;12.58;62.76;99909.72;5077838;27;20046;-65
2022/06/04 02:32:43;;;;;;;8.15;4.57;;;;;;;12.73;63.09;99916.59;5110986;27;20039;-62
2022/06/04 02:35:15;;;;;;;9.63;4.28;;;;;;;12.72;62.52;99913.06;5108135;27;20050;-61
2022/06/04 02:38:29;;;;;;;5.97;4.03;;;;;;;12.87;62.47;99911.00;5118658;27;20551;-63
2022/06/04 02:41:17;;;;;;;11.18;4.25;;;;;;;12.90;61.16;99923.31;5099296;27;20121;-62
2022/06/04 02:43:56;;;;;;;7.68;4.40;;;;;;;13.00;61.71;99910.91;5080444;27;20374;-63
2022/06/04 02:46:41;;;;;;;7.28;4.30;;;;;;;13.12;61.72;99915.31;5091305;27;20102;-64
2022/06/04 02:49:18;;;;;;;5.18;3.95;;;;;;;13.18;61.49;99909.53;5113070;27;20514;-68
2022/06/04 02:51:46;;;;;;;6.60;3.90;;;;;;;13.20;61.55;99907.59;5102002;27;20085;-69
2022/06/04 02:54:18;;;;;;;7.68;4.30;;;;;;;13.31;61.04;99910.28;5117029;27;20070;-71
2022/06/04 02:56:45;;;;;;;9.13;4.05;;;;;;;13.44;60.48;99911.00;5099863;27;20102;-69
2022/06/04 02:59:14;;;;;;;11.05;4.13;;;;;;;13.60;60.74;99909.81;5112181;27;20468;-69
2022/06/04 03:01:42;;;;;;;7.65;3.80;;;;;;;13.74;60.65;99912.25;5088509;27;20047;-69
2022/06/04 03:04:07;;;;;;;4.53;3.65;;;;;;;13.88;59.92;99913.81;5106844;27;20084;-70
2022/06/04 03:06:33;;;;;;;6.35;4.10;;;;;;;14.03;60.03;99912.56;5108622;27;20054;-71
2022/06/04 03:09:01;;;;;;;6.70;3.80;;;;;;;14.17;58.83;99921.19;5079419;27;20125;-67
2022/06/04 03:11:26;;;;;;;7.18;4.03;;;;;;;14.27;58.71;99925.78;5099603;27;20111;-65
2022/06/04 03:13:51;;;;;;;5.10;3.78;;;;;;;14.40;58.66;99905.91;5094263;27;20042;-68
2022/06/04 03:16:16;;;;;;;4.40;3.30;;;;;;;14.53;57.42;99916.47;5112463;27;20051;-67
2022/06/04 03:18:41;;;;;;;5.93;3.40;;;;;;;14.68;57.46;99907.13;5111763;27;20620;-67
2022/06/04 03:21:06;;;;;;;4.60;3.70;;;;;;;14.82;56.96;99911.31;5080612;27;20050;-66
2022/06/04 03:23:32;;;;;;;5.88;3.55;;;;;;;14.90;56.06;99919.56;5081454;27;20051;-67
2022/06/04 03:25:57;;;;;;;7.55;3.05;;;;;;;15.03;56.78;99920.22;5079670;27;20045;-67
2022/06/04 03:28:21;;;;;;;5.15;3.75;;;;;;;15.14;56.31;99922.84;5115983;27;20035;-66
2022/06/04 03:30:46;;;;;;;8.73;3.25;;;;;;;15.24;56.01;99918.38;5098121;27;20046;-67
2022/06/04 03:33:11;;;;;;;6.43;3.05;;;;;;;15.38;55.95;99924.41;5080036;27;20113;-67
2022/06/04 03:35:36;;;;;;;10.70;3.15;;;;;;;15.47;55.35;99923.59;5097897;27;20543;-67
2022/06/04 03:38:01;;;;;;;5.38;3.35;;;;;;;15.60;55.33;99927.81;5116334;27;20083;-66
2022/06/04 03:40:26;;;;;;;8.15;3.55;;;;;;;15.70;54.81;99925.16;5097854;27;20042;-67
2022/06/04 03:42:50;;;;;;;3.38;2.63;;;;;;;15.83;54.47;99930.28;5080543;27;20026;-68
2022/06/04 03:45:15;;;;;;;4.22;3.03;;;;;;;15.97;54.34;99933.47;5117075;27;20456;-67
2022/06/04 03:47:40;;;;;;;6.40;3.03;;;;;;;16.11;53.68;99926.88;5097510;27;20395;-66
2022/06/04 03:50:07;;;;;;;6.75;3.03;;;;;;;16.23;53.78;99933.81;5116308;27;20469;-67
2022/06/04 03:52:32;;;;;;;5.40;3.00;;;;;;;16.34;53.38;99931.00;5098069;27;20043;-67
2022/06/04 03:54:57;;;;;;;4.95;2.70;;;;;;;16.47;52.52;99927.22;5116580;27;20041;-67
2022/06/04 03:57:50;;;;;;;9.23;2.90;;;;;;;16.54;51.92;99922.97;5080538;27;20045;-67
2022/06/04 04:00:22;;;;;;;4.72;2.97;;;;;;;16.65;51.76;99931.78;5080408;27;20047;-66
2022/06/04 04:02:55;;;;;;;3.70;3.05;;;;;;;16.77;52.06;99926.25;5064986;27;20034;-68
2022/06/04 04:05:22;;;;;;;9.27;2.60;;;;;;;16.83;51.34;99941.81;5105057;27;20059;-69
2022/06/04 04:07:48;;;;;;;4.53;2.78;;;;;;;16.93;51.50;99935.44;5117502;27;20034;-68
2022/06/04 04:10:14;;;;;;;5.72;2.85;;;;;;;17.03;51.51;99938.16;5116394;27;20060;-67
2022/06/04 04:12:39;;;;;;;7.53;3.10;;;;;;;17.13;50.66;99930.91;5097538;27;20047;-67
2022/06/04 04:15:05;;;;;;;7.03;2.97;;;;;;;17.17;50.29;99929.59;5116188;27;20098;-68
2022/06/04 04:17:30;;;;;;;6.93;2.60;;;;;;;17.26;50.20;99942.22;5097775;27;20561;-68
2022/06/04 04:19:55;;;;;;;3.45;2.67;;;;;;;17.26;50.21;99930.59;5119173;27;20046;-68
2022/06/04 04:22:20;;;;;;;3.10;2.58;;;;;;;17.27;50.42;99932.28;5068112;27;20031;-68
2022/06/04 04:24:45;;;;;;;8.00;3.08;;;;;;;17.32;49.91;99924.63;5101774;27;20042;-68
2022/06/04 04:27:11;;;;;;;4.65;3.13;;;;;;;17.47;50.46;99920.47;5121452;27;20041;-68
2022/06/04 04:29:36;;;;;;;9.65;3.13;;;;;;;17.58;49.68;99922.13;5083807;27;20043;-67
2022/06/04 04:32:01;;;;;;;3.22;2.90;;;;;;;17.75;48.93;99924.06;5119631;27;20031;-67
2022/06/04 04:34:25;;;;;;;5.13;2.92;;;;;;;17.89;48.67;99920.03;5100246;27;20042;-68
2022/06/04 04:36:50;;;;;;;7.25;2.97;;;;;;;18.02;48.37;99928.63;5081621;27;20093;-67
2022/06/04 04:39:15;;;;;;;4.80;3.10;;;;;;;18.20;47.85;99924.13;5100594;27;20045;-69
2022/06/04 04:41:40;;;;;;;3.80;2.88;;;;;;;18.48;48.06;99923.09;5098369;27;20042;-67
2022/06/04 04:44:05;;;;;;;4.78;3.55;;;;;;;18.84;46.66;99923.13;5082124;27;20043;-67
2022/06/04 04:46:30;;;;;;;3.78;3.03;;;;;;;19.17;45.74;99921.53;5120779;27;20114;-68
2022/06/04 04:48:54;;;;;;;2.80;2.60;;;;;;;19.47;45.88;99931.03;5122870;27;20050;-67
2022/06/04 04:51:22;;;;;;;3.10;2.75;;;;;;;19.86;45.09;99917.94;5101607;27;20146;-68
2022/06/04 04:53:48;;;;;;;2.70;2.35;;;;;;;20.30;44.37;99929.41;5104266;27;20039;-68
2022/06/04 04:56:18;;;;;;;5.45;2.80;;;;;;;20.74;43.02;99926.50;5105045;27;20057;-68
2022/06/04 04:58:43;;;;;;;4.07;3.40;;;;;;;21.21;42.63;99932.13;5123151;27;20047;-69
2022/06/04 05:01:17;;;;;;;3.97;2.90;;;;;;;21.56;41.26;99928.13;5102419;27;20045;-69
2022/06/04 05:03:44;;;;;;;6.90;3.10;;;;;;;21.86;40.71;99929.25;5102280;27;20130;-69
2022/06/04 05:06:10;;;;;;;4.78;3.20;;;;;;;22.14;40.55;99925.09;5120421;27;20283;-67
2022/06/04 05:08:34;;;;;;;4.03;2.90;;;;;;;22.41;39.98;99929.22;5122223;27;20615;-65
2022/06/04 05:11:14;;;;;;;4.30;2.90;;;;;;;22.71;39.86;99925.59;5119693;27;20420;-65
2022/06/04 05:13:40;;;;;;;3.60;3.10;;;;;;;22.94;38.29;99927.50;5097277;27;20058;-65
2022/06/04 05:16:05;;;;;;;3.88;3.00;;;;;;;23.12;38.48;99928.91;5098410;27;20113;-66
2022/06/04 05:18:31;;;;;;;3.72;3.00;;;;;;;23.31;37.68;99938.41;5098584;27;20047;-66
2022/06/04 05:21:07;;;;;;;4.65;2.97;;;;;;;23.55;37.63;99931.06;5097655;27;20054;-66
2022/06/04 05:23:32;;;;;;;4.05;3.17;;;;;;;23.58;37.83;99934.28;5098378;27;20035;-66
2022/06/04 05:25:57;;;;;;;2.83;2.58;;;;;;;23.79;37.93;99938.97;5096842;27;20084;-67
2022/06/04 05:28:22;;;;;;;3.10;2.83;;;;;;;24.04;36.93;99934.09;5098231;27;20408;-67
2022/06/04 05:30:46;;;;;;;3.00;2.70;;;;;;;24.23;36.47;99933.53;5098460;27;20400;-67
2022/06/04 05:33:11;;;;;;;4.30;3.28;;;;;;;24.40;36.59;99939.59;5096721;27;20085;-66
2022/06/04 05:35:37;;;;;;;4.85;3.28;;;;;;;24.54;35.80;99938.72;5098332;27;20038;-67
2022/06/04 05:38:02;;;;;;;3.33;2.90;;;;;;;24.62;35.98;99938.59;5079893;27;20068;-68
2022/06/04 05:40:27;;;;;;;4.53;3.00;;;;;;;24.76;35.99;99932.25;5097102;27;20073;-67
2022/06/04 05:42:52;;;;;;;3.35;3.05;;;;;;;24.95;35.30;99928.03;5098662;27;20031;-66
2022/06/04 05:45:17;;;;;;;5.32;3.70;;;;;;;25.10;35.06;99933.44;5097343;27;20072;-66
2022/06/04 05:47:41;;;;;;;3.83;3.08;;;;;;;25.32;34.74;99937.81;5098128;27;20034;-65
2022/06/04 05:50:06;;;;;;;4.25;3.55;;;;;;;25.64;34.58;99923.59;5097596;27;20042;-66
2022/06/04 05:52:31;;;;;;;3.00;2.70;;;;;;;25.90;33.98;99919.34;5097212;27;20422;-66
2022/06/04 05:54:56;;;;;;;4.55;3.75;;;;;;;26.31;32.86;99925.66;5079653;27;20046;-66
2022/06/04 05:57:21;;;;;;;5.75;3.53;;;;;;;26.93;32.42;99924.63;5095539;27;20038;-65
2022/06/04 05:59:45;;;;;;;6.78;4.00;;;;;;;27.64;31.64;99913.06;5097250;27;20070;-66
2022/06/04 06:02:11;;;;;;;3.95;3.42;;;;;;;28.03;30.41;99920.31;5098404;27;20159;-66
2022/06/04 06:04:36;;;;;;;5.20;3.30;;;;;;;28.48;29.61;99912.97;5097059;27;20049;-66
2022/06/04 06:07:01;;;;;;;6.45;3.63;;;;;;;28.99;28.04;99921.16;5098232;27;20126;-67
2022/06/04 06:09:26;;;;;;;6.75;3.80;;;;;;;29.47;27.43;99902.16;5098085;27;20045;-65
2022/06/04 06:11:52;;;;;;;4.97;3.33;;;;;;;30.22;26.56;99916.59;5096371;27;20052;-67
2022/06/04 06:14:18;;;;;;;4.63;3.42;;;;;;;31.07;25.71;99913.72;5098359;27;20043;-67
2022/06/04 06:16:45;;;;;;;4.45;3.50;;;;;;;31.60;25.49;99924.72;5117830;27;20126;-66
2022/06/04 06:19:12;;;;;;;7.22;3.53;;;;;;;32.31;24.69;99923.59;5099265;27;20412;-66
2022/06/04 06:21:37;;;;;;;4.50;3.17;;;;;;;33.03;23.72;99921.16;5099993;27;20037;-64
2022/06/04 06:24:04;;;;;;;6.32;4.10;;;;;;;33.56;22.59;99921.75;5099356;27;20038;-67
2022/06/04 06:26:32;;;;;;;4.43;3.63;;;;;;;33.65;21.73;99923.00;5082228;27;20046;-68
2022/06/04 06:29:00;;;;;;;4.55;3.70;;;;;;;32.75;23.08;99916.47;5099536;27;20046;-68
2022/06/04 06:31:26;;;;;;;3.97;3.58;;;;;;;32.90;22.91;99915.94;5117697;27;20043;-68
2022/06/04 06:33:51;;;;;;;4.93;3.70;;;;;;;33.26;22.43;99916.59;5082466;27;20053;-67
2022/06/04 06:36:19;;;;;;;3.65;3.33;;;;;;;33.76;21.58;99916.56;5081490;27;20039;-67
2022/06/04 06:38:45;;;;;;;3.58;3.28;;;;;;;34.43;21.75;99905.28;5117830;27;20103;-65
2022/06/04 06:41:10;;;;;;;4.18;3.70;;;;;;;34.82;20.78;99919.88;5098826;27;20472;-66
2022/06/04 06:43:38;;;;;;;6.43;3.85;;;;;;;34.97;20.23;99905.34;5099398;27;20480;-65
2022/06/04 06:46:10;;;;;;;14.90;7.38;;;;;;;35.32;20.31;99908.47;5098909;27;20069;-67
2022/06/04 06:48:37;;;;;;;6.15;4.47;;;;;;;34.44;20.47;99915.25;5117415;27;20095;-66
2022/06/04 06:51:10;;;;;;;11.82;5.15;;;;;;;34.15;19.89;99911.84;5117471;27;20061;-67
2022/06/04 06:53:36;;;;;;;4.30;3.90;;;;;;;34.19;20.73;99905.56;5099118;27;20137;-67
2022/06/04 06:56:12;;;;;;;3.78;3.47;;;;;;;35.11;19.00;99914.88;5099507;27;20047;-66
2022/06/04 06:58:37;;;;;;;5.90;4.68;;;;;;;36.08;19.21;99905.34;5098789;27;20042;-67
2022/06/04 07:01:02;;;;;;;6.70;5.20;;;;;;;36.45;18.32;99908.03;5098873;27;20041;-68
2022/06/04 07:03:27;;;;;;;4.47;3.83;;;;;;;35.41;18.98;99901.31;5099194;27;20046;-68
2022/06/04 07:05:53;;;;;;;9.38;6.50;;;;;;;35.50;19.68;99907.19;5098512;27;20035;-67
2022/06/04 07:08:18;;;;;;;8.02;4.30;;;;;;;36.22;18.95;99903.78;5081297;27;20482;-66
2022/06/04 07:10:46;;;;;;;7.85;3.85;;;;;;;36.44;19.05;99904.44;5117414;27;20125;-66
2022/06/04 07:13:11;;;;;;;6.25;4.15;;;;;;;36.36;18.89;99899.38;5116845;27;20135;-67
2022/06/04 07:15:36;;;;;;;18.23;11.30;;;;;;;36.88;17.99;99898.44;5117014;27;20175;-68
2022/06/04 07:18:00;;;;;;;5.38;4.55;;;;;;;36.22;18.19;99907.41;5117015;27;20548;-66
2022/06/04 07:20:25;;;;;;;5.72;4.28;;;;;;;36.54;17.83;99893.34;5098411;27;20042;-67
2022/06/04 07:22:52;;;;;;;5.57;3.65;;;;;;;36.59;18.12;99898.88;5116729;27;20150;-67
2022/06/04 07:25:17;;;;;;;6.00;3.90;;;;;;;35.63;19.24;99896.47;5116526;27;20038;-68
2022/06/04 07:27:42;;;;;;;4.38;3.97;;;;;;;34.71;19.42;99893.97;5116391;27;20038;-68
2022/06/04 07:30:08;;;;;;;4.90;3.63;;;;;;;33.70;20.08;99900.97;5098070;27;20042;-68
2022/06/04 07:32:32;;;;;;;4.05;3.75;;;;;;;33.38;20.47;99887.78;5097742;27;20034;-68
2022/06/04 07:34:57;;;;;;;3.58;3.28;;;;;;;34.63;19.18;99894.47;5116784;27;20646;-69
2022/06/04 07:37:22;;;;;;;4.35;3.63;;;;;;;36.49;17.84;99889.69;5116838;27;20561;-69
2022/06/04 07:39:46;;;;;;;4.47;4.07;;;;;;;38.60;16.38;99900.09;5116952;27;20081;-67
2022/06/04 07:42:11;;;;;;;7.75;5.97;;;;;;;41.03;14.57;99900.31;5080868;27;20447;-69
2022/06/04 07:44:36;;;;;;;8.15;7.00;;;;;;;42.83;13.19;99898.25;5116404;27;20133;-69
2022/06/04 07:47:00;;;;;;;6.95;5.43;;;;;;;43.51;12.52;99890.66;5116349;27;20091;-69
2022/06/04 07:49:25;;;;;;;6.55;5.75;;;;;;;43.77;12.33;99902.91;5097890;27;20105;-68
2022/06/04 07:51:51;;;;;;;6.75;6.25;;;;;;;44.70;11.83;99900.69;5097896;27;20062;-67
2022/06/04 07:54:16;;;;;;;8.07;7.45;;;;;;;45.69;11.54;99907.28;5116210;27;20043;-68
2022/06/04 07:56:42;;;;;;;7.85;7.25;;;;;;;45.97;10.69;99904.03;5115919;27;20038;-68
2022/06/04 07:59:10;;;;;;;8.27;7.57;;;;;;;46.15;10.90;99920.53;5080259;27;20405;-68
2022/06/04 08:01:36;;;;;;;7.80;6.82;;;;;;;46.22;10.99;99894.63;5097835;27;20043;-67
2022/06/04 08:04:00;;;;;;;8.00;7.40;;;;;;;46.64;10.87;99904.00;5097273;27;20043;-67
2022/06/04 08:06:25;;;;;;;8.77;7.95;;;;;;;45.86;10.50;99895.94;5116315;27;20127;-68
2022/06/04 08:08:54;;;;;;;7.97;7.38;;;;;;;45.58;10.59;99905.16;5115708;27;20046;-68
2022/06/04 08:11:31;;;;;;;8.05;7.45;;;;;;;44.78;11.68;99885.03;5097390;27;20042;-69
2022/06/04 08:13:56;;;;;;;7.22;6.63;;;;;;;43.20;11.62;99885.88;5096913;27;20615;-69
2022/06/04 08:16:21;;;;;;;6.57;5.88;;;;;;;41.21;13.30;99885.50;5115319;27;20532;-69
2022/06/04 08:18:46;;;;;;;4.78;4.38;;;;;;;39.12;14.73;99875.22;5096902;27;20046;-69
2022/06/04 08:21:11;;;;;;;5.72;5.25;;;;;;;37.46;15.85;99872.03;5080304;27;20046;-69
2022/06/04 08:23:39;;;;;;;6.25;5.57;;;;;;;38.13;15.79;99873.56;5115451;27;20082;-69
2022/06/04 08:26:04;;;;;;;6.97;5.72;;;;;;;40.08;14.38;99878.16;5115892;27;20133;-69
2022/06/04 08:28:29;;;;;;;5.57;5.18;;;;;;;42.02;12.89;99886.81;5096988;27;20122;-70
2022/06/04 08:31:06;;;;;;;6.95;6.22;;;;;;;43.57;12.15;99892.22;5097362;27;20495;-69
2022/06/04 08:33:31;;;;;;;5.93;5.55;;;;;;;44.53;11.44;99880.19;5097365;27;20026;-69
2022/06/04 08:35:56;;;;;;;7.82;7.25;;;;;;;45.74;10.39;99887.38;5115885;27;20046;-70
2022/06/04 08:38:21;;;;;;;8.77;7.93;;;;;;;46.80;10.17;99876.84;5115278;27;20044;-68
2022/06/04 08:40:50;;;;;;;10.07;9.43;;;;;;;47.16;9.35;99889.50;5097351;27;20523;-68
2022/06/04 08:43:31;;;;;;;11.60;10.70;;;;;;;48.01;9.09;99892.50;5097295;27;20042;-67
2022/06/04 08:45:57;;;;;;;11.50;10.80;;;;;;;48.27;9.04;99887.34;5117496;27;20471;-69
2022/06/04 08:48:35;;;;;;;16.27;12.00;;;;;;;48.92;8.77;99893.00;5098357;27;20042;-69
2022/06/04 08:51:00;;;;;;;12.98;12.18;;;;;;;49.04;8.72;99879.63;5079917;27;20070;-69
2022/06/04 08:53:28;;;;;;;14.55;13.65;;;;;;;49.34;8.12;99877.25;5097167;27;20504;-69
2022/06/04 08:58:57;;;;;;;15.25;14.35;;;;;;;49.37;8.09;99873.69;5118806;27;20038;-69
2022/06/04 09:01:35;;;;;;;16.73;15.63;;;;;;;49.85;7.96;99882.25;5119795;27;20050;-67
2022/06/04 09:04:23;;;;;;;16.67;15.77;;;;;;;49.75;7.95;99873.13;5116070;27;20046;-68
2022/06/04 09:07:19;;;;;;;16.15;15.23;;;;;;;50.05;7.60;99872.66;5067666;27;20039;-68
2022/06/04 09:10:11;;;;;;;16.75;15.75;;;;;;;50.49;7.78;99859.94;5081107;27;20476;-68
2022/06/04 09:12:39;;;;;;;;;;;;;;;52.12;7.59;99867.19;5080270;27;20424;-68
2022/06/04 09:15:19;;;;;;;21.83;20.42;;;;;;;51.98;6.51;99859.25;5116083;27;19941;-68
2022/06/04 09:17:51;;;;;;;22.85;21.55;;;;;;;51.86;6.53;99837.50;5080241;27;20041;-69
2022/06/04 09:20:20;;;;;;;24.38;22.95;;;;;;;51.98;6.49;99852.75;5097677;27;20043;-68
2022/06/04 09:22:47;;;;;;;22.48;21.27;;;;;;;51.48;6.60;99849.00;5114671;27;20034;-69
2022/06/04 09:25:16;;;;;;;25.10;23.80;;;;;;;51.53;6.52;99829.63;5116321;27;20183;-70
2022/06/04 09:27:50;;;;;;;25.48;24.08;;;;;;;51.43;6.95;99835.94;5117359;27;20043;-70
2022/06/04 09:30:25;;;;;;;25.33;24.13;;;;;;;51.86;6.17;99836.69;5097194;27;20039;-68
2022/06/04 09:33:11;;;;;;;25.90;24.65;;;;;;;51.78;6.42;99834.94;5065897;27;20039;-68
2022/06/04 09:35:40;;;;;;;27.27;25.77;;;;;;;51.99;6.74;99840.16;5100083;27;20077;-68
2022/06/04 09:38:05;;;;;;;30.95;29.38;;;;;;;52.58;6.43;99828.06;5100338;27;20046;-68
2022/06/04 09:40:33;;;;;;;31.58;29.92;;;;;;;52.83;6.17;99828.38;5118756;27;20049;-68
2022/06/04 09:43:17;;;;;;;36.38;34.35;;;;;;;53.46;5.73;99833.13;5118889;27;20042;-67
2022/06/04 09:45:52;;;;;;;34.00;32.28;;;;;;;52.20;6.29;99831.94;5118403;27;20034;-67
2022/06/04 09:48:28;;;;;;;26.17;24.80;;;;;;;50.15;7.12;99824.69;5118908;27;20490;-68
2022/06/04 09:50:57;;;;;;;19.80;18.45;;;;;;;46.78;8.75;99814.28;5099770;27;20039;-69
2022/06/04 09:53:34;;;;;;;13.65;12.75;;;;;;;45.24;9.78;99801.88;5118036;27;20041;-68
2022/06/04 09:56:10;;;;;;;15.55;14.43;;;;;;;46.58;9.27;99809.44;5083004;27;20088;-69
2022/06/04 09:58:39;;;;;;;16.02;15.05;;;;;;;47.63;8.01;99808.06;5082582;27;20043;-68
2022/06/04 10:01:14;;;;;;;16.77;15.65;;;;;;;48.01;7.65;99811.34;5100344;27;20500;-68
2022/06/04 10:03:41;;;;;;;15.05;14.15;;;;;;;46.71;8.65;99802.72;5100312;27;20035;-68
2022/06/04 10:06:13;;;;;;;11.63;10.82;;;;;;;44.61;9.40;99801.44;5099637;27;20497;-68
2022/06/04 10:11:34;;;;;;;7.25;6.65;;;;;;;39.37;12.87;99786.84;5118498;27;20389;-68
2022/06/04 10:13:59;;;;;;;11.13;6.75;;;;;;;37.26;14.69;99777.50;5117741;27;20484;-69
2022/06/04 10:16:36;;;;;;;5.53;4.75;;;;;;;35.91;15.65;99777.88;5081984;27;20050;-68
2022/06/04 10:19:15;;;;;;;5.28;4.78;;;;;;;36.84;14.84;99769.47;5081726;27;20094;-68
2022/06/04 10:21:42;;;;;;;5.90;5.50;;;;;;;39.25;13.07;99770.50;5099379;27;20031;-68
2022/06/04 10:24:31;;;;;;;6.95;6.35;;;;;;;41.06;11.95;99778.63;5099326;27;20038;-68
2022/06/04 10:27:22;;;;;;;7.90;5.93;;;;;;;40.28;12.46;99782.13;5117297;27;20400;-68
2022/06/04 10:30:15;;;;;;;10.75;5.43;;;;;;;38.18;12.88;99784.44;5085533;27;20043;-70
2022/06/04 10:33:17;;;;;;;6.57;5.00;;;;;;;36.41;14.44;99781.94;5098898;27;20066;-68
2022/06/04 10:35:54;;;;;;;4.15;3.95;;;;;;;34.60;15.77;99768.44;5081448;27;20082;-67
2022/06/04 10:38:57;;;;;;;5.22;4.03;;;;;;;33.43;16.84;99768.97;5082184;27;20053;-69
2022/06/04 10:41:52;;;;;;;4.25;3.85;;;;;;;32.57;17.13;99759.31;5117062;27;20121;-68
2022/06/04 10:44:29;;;;;;;7.05;3.70;;;;;;;31.39;18.44;99741.53;5116960;27;20054;-67
2022/06/04 10:47:24;;;;;;;5.45;4.35;;;;;;;30.63;19.55;99753.50;5117405;27;20094;-67
2022/06/04 10:50:07;;;;;;;6.97;4.78;;;;;;;29.82;20.89;99744.94;5108898;27;20109;-69
2022/06/04 10:52:37;;;;;;;4.43;3.97;;;;;;;29.38;21.59;99743.38;5116888;27;20102;-67
2022/06/04 10:55:24;;;;;;;4.10;3.40;;;;;;;29.17;22.40;99742.75;5093826;27;20561;-66
2022/06/04 10:58:06;;;;;;;4.20;3.53;;;;;;;28.78;22.75;99732.97;5065679;27;20046;-67
2022/06/04 11:00:45;;;;;;;11.30;4.22;;;;;;;29.05;22.35;99739.06;5089390;27;20062;-68
2022/06/04 11:03:23;;;;;;;5.85;3.55;;;;;;;29.02;23.25;99739.50;5090222;27;20103;-68
2022/06/04 11:05:53;;;;;;;6.85;4.15;;;;;;;28.85;22.66;99744.75;5078347;27;20074;-69
2022/06/04 11:08:26;;;;;;;5.72;3.55;;;;;;;28.67;23.07;99741.91;5080448;27;20049;-67
2022/06/04 11:10:59;;;;;;;3.47;3.17;;;;;;;28.42;23.11;99744.69;5062607;27;20556;-66
2022/06/04 11:13:33;;;;;;;4.10;3.38;;;;;;;28.19;22.87;99744.41;5080884;27;20050;-68
2022/06/04 11:15:58;;;;;;;4.10;3.70;;;;;;;27.83;23.50;99743.13;5073437;27;20039;-69
2022/06/04 11:18:42;;;;;;;5.90;3.83;;;;;;;27.83;23.59;99742.28;5091959;27;20050;-67
2022/06/04 11:21:07;;;;;;;6.03;3.90;;;;;;;27.43;24.57;99738.84;5124551;27;20377;-66
2022/06/04 11:23:40;;;;;;;4.05;3.15;;;;;;;27.43;25.29;99741.56;5116925;27;20511;-65
2022/06/04 11:26:23;;;;;;;5.85;3.53;;;;;;;27.38;24.92;99742.25;5116923;27;20082;-67
2022/06/04 11:28:48;;;;;;;3.00;2.72;;;;;;;27.24;25.04;99734.28;5097828;27;20039;-67
2022/06/04 11:31:40;;;;;;;5.07;3.67;;;;;;;27.40;24.59;99740.13;5116712;27;20073;-67
2022/06/04 11:34:12;;;;;;;6.07;4.00;;;;;;;27.31;25.31;99740.59;5116702;27;20077;-72
2022/06/04 11:37:11;;;;;;;11.02;4.95;;;;;;;27.34;25.45;99737.41;5116658;27;20398;-70
2022/06/04 11:39:54;;;;;;;8.52;4.97;;;;;;;27.26;25.33;99734.91;5071789;27;20496;-71
2022/06/04 11:42:26;;;;;;;5.15;4.03;;;;;;;27.07;25.14;99725.69;5088028;27;20055;-66
2022/06/04 11:45:15;;;;;;;8.18;4.95;;;;;;;27.09;25.78;99731.78;5106376;27;20123;-68
2022/06/04 11:47:53;;;;;;;56.00;34.83;;;;;;;27.05;24.19;99725.06;5106895;27;20042;-72
2022/06/04 11:50:21;;;;;;;11.13;6.68;;;;;;;26.91;24.14;99721.47;5086511;27;20057;-71
2022/06/04 11:53:19;;;;;;;8.07;4.13;;;;;;;26.91;24.22;99716.00;5110419;27;20042;-69
2022/06/04 11:56:01;;;;;;;5.68;4.20;;;;;;;26.90;24.34;99718.94;5099140;27;20138;-68
2022/06/04 11:58:34;;;;;;;6.55;3.83;;;;;;;26.66;25.75;99720.44;5117398;27;20043;-67
2022/06/04 12:01:04;;;;;;;4.10;3.70;;;;;;;26.13;25.73;99712.22;5081775;27;20153;-67
2022/06/04 12:03:34;;;;;;;17.10;5.88;;;;;;;25.71;26.22;99704.34;5117082;27;20034;-67